Delray Beach, FL

7:14 AM EST on December 11, 2016 (GMT -0500)
Brads Bedding Plants Inc. | | Change Station

Elev 19 ft 26.47 °N, 80.18 °W | Updated 2 days ago

Overcast
Overcast
71 °F
Feels Like 71 °F
N
15
Wind Variable Wind from ENE
Gusts 21 mph

Today
High -- | Low -- °F
--% Chance of Precip.
Yesterday
High -- | Low -- °F
Precip. -- in
Pressure 30.19 in
Visibility 5.0 miles
Clouds Scattered Clouds 2200 ft
Mostly Cloudy 2600 ft
Overcast 3200 ft
Dew Point 64 °F
Humidity 80%
Rainfall 0.03 in
Snow Depth Not available.
6:58 AM 5:29 PM
Waxing Gibbous, 91% visible
SPECI KPMP 111201Z 06019G25KT 5SM -RA SCT022 BKN026 OVC032 23/19 A3019 RMK AO2 RAB1154 P0000 T02280194
Pressure 30.19 in
Visibility 5.0 miles
Clouds Scattered Clouds 2200 ft
Mostly Cloudy 2600 ft
Overcast 3200 ft
Dew Point 64 °F
Humidity 80%
Rainfall 0.03 in
Snow Depth Not available.
6:58 AM 5:29 PM
Waxing Gibbous, 91% visible
SPECI KPMP 111201Z 06019G25KT 5SM -RA SCT022 BKN026 OVC032 23/19 A3019 RMK AO2 RAB1154 P0000 T02280194

10-Day Weather Forecast

Almanac

Astronomy

Dec. 11, 2016 Rise Set
Actual Time
Civil Twilight
Nautical Twilight
Astronomical Twilight
Moon
Length of Visible Light
Length of Day
Tomorrow will be .
, % of the Moon is Illuminated

Today's Extremes

State Highs State Lows

Community

WunderPhotos

Upload Photos

1,956,710 photos uploaded!

WunderBlog® & News

Nearby

Air Quality

  Air Quality AQ Index Pollutant
Not available.

Snow Depth

Station Depth Elevation

Earthquake Activity

City Distance Mag. Time & Date
Minimum magnitude displayed is 2.5.

Coastal Water Temperatures

Place Temperature

Stations

Nearby Weather Stations

Station Location Temp. Windchill Dew Point Humidity Wind Precip. Elev Updated Type
                   

Watches & Warnings

There are currently no watches in effect.